sensor_id;sensor_type;location;lat;lon;timestamp;pressure;altitude;pressure_sealevel;temperature;humidity
50394;BME280;36308;46.312;25.288;2023-09-07T00:01:17;96911.72;;;13.02;61.59
50394;BME280;36308;46.312;25.288;2023-09-07T00:03:43;96900.84;;;12.97;61.87
50394;BME280;36308;46.312;25.288;2023-09-07T00:06:09;96916.03;;;13.03;61.68
50394;BME280;36308;46.312;25.288;2023-09-07T00:08:34;96904.53;;;12.90;61.65
50394;BME280;36308;46.312;25.288;2023-09-07T00:11:06;96898.84;;;12.87;62.01
50394;BME280;36308;46.312;25.288;2023-09-07T00:13:33;96912.16;;;12.93;61.86
50394;BME280;36308;46.312;25.288;2023-09-07T00:16:03;96909.13;;;12.90;61.67
50394;BME280;36308;46.312;25.288;2023-09-07T00:18:29;96889.22;;;12.74;61.90
50394;BME280;36308;46.312;25.288;2023-09-07T00:20:55;96891.91;;;12.74;62.22
50394;BME280;36308;46.312;25.288;2023-09-07T00:23:21;96907.63;;;12.77;61.85
50394;BME280;36308;46.312;25.288;2023-09-07T00:25:47;96907.53;;;12.72;61.73
50394;BME280;36308;46.312;25.288;2023-09-07T00:28:12;96904.28;;;12.70;62.17
50394;BME280;36308;46.312;25.288;2023-09-07T00:30:38;96909.69;;;12.70;61.92
50394;BME280;36308;46.312;25.288;2023-09-07T00:33:04;96898.25;;;12.63;61.97
50394;BME280;36308;46.312;25.288;2023-09-07T00:35:30;96903.09;;;12.61;61.92
50394;BME280;36308;46.312;25.288;2023-09-07T00:37:55;96903.91;;;12.61;61.78
50394;BME280;36308;46.312;25.288;2023-09-07T00:40:22;96878.53;;;12.40;61.90
50394;BME280;36308;46.312;25.288;2023-09-07T00:42:47;96907.34;;;12.57;61.86
50394;BME280;36308;46.312;25.288;2023-09-07T00:45:12;96910.84;;;12.57;62.00
50394;BME280;36308;46.312;25.288;2023-09-07T00:47:38;96912.69;;;12.51;61.79
50394;BME280;36308;46.312;25.288;2023-09-07T00:50:05;96905.31;;;12.47;62.25
50394;BME280;36308;46.312;25.288;2023-09-07T00:52:32;96912.03;;;12.44;62.45
50394;BME280;36308;46.312;25.288;2023-09-07T00:54:58;96889.50;;;12.33;62.59
50394;BME280;36308;46.312;25.288;2023-09-07T00:57:24;96912.28;;;12.43;62.66
50394;BME280;36308;46.312;25.288;2023-09-07T00:59:50;96911.41;;;12.37;62.35
50394;BME280;36308;46.312;25.288;2023-09-07T01:02:15;96911.88;;;12.34;62.20
50394;BME280;36308;46.312;25.288;2023-09-07T01:04:41;96913.19;;;12.31;62.38
50394;BME280;36308;46.312;25.288;2023-09-07T01:07:32;96914.00;;;12.32;62.57
50394;BME280;36308;46.312;25.288;2023-09-07T01:10:00;96907.97;;;12.25;62.57
50394;BME280;36308;46.312;25.288;2023-09-07T01:12:27;96907.16;;;12.24;62.59
50394;BME280;36308;46.312;25.288;2023-09-07T01:14:53;96889.69;;;12.10;62.49
50394;BME280;36308;46.312;25.288;2023-09-07T01:17:19;96906.84;;;12.21;62.78
50394;BME280;36308;46.312;25.288;2023-09-07T01:19:48;96904.56;;;12.12;62.78
50394;BME280;36308;46.312;25.288;2023-09-07T01:22:19;96890.69;;;12.04;62.68
50394;BME280;36308;46.312;25.288;2023-09-07T01:24:45;96914.75;;;12.10;62.48
50394;BME280;36308;46.312;25.288;2023-09-07T01:27:12;96899.56;;;12.04;62.48
50394;BME280;36308;46.312;25.288;2023-09-07T01:29:39;96911.00;;;12.11;62.57
50394;BME280;36308;46.312;25.288;2023-09-07T01:32:05;96912.53;;;12.07;62.38
50394;BME280;36308;46.312;25.288;2023-09-07T01:34:31;96912.53;;;12.07;62.67
50394;BME280;36308;46.312;25.288;2023-09-07T01:36:57;96906.53;;;12.00;62.61
50394;BME280;36308;46.312;25.288;2023-09-07T01:39:23;96895.56;;;11.90;62.96
50394;BME280;36308;46.312;25.288;2023-09-07T01:41:48;96902.56;;;11.91;62.94
50394;BME280;36308;46.312;25.288;2023-09-07T01:44:14;96897.03;;;11.81;63.31
50394;BME280;36308;46.312;25.288;2023-09-07T01:46:39;96909.47;;;11.87;62.70
50394;BME280;36308;46.312;25.288;2023-09-07T01:49:05;96905.19;;;11.86;62.63
50394;BME280;36308;46.312;25.288;2023-09-07T01:51:30;96892.59;;;11.75;62.90
50394;BME280;36308;46.312;25.288;2023-09-07T01:53:56;96892.50;;;11.69;63.07
50394;BME280;36308;46.312;25.288;2023-09-07T01:56:21;96922.97;;;11.87;62.67
50394;BME280;36308;46.312;25.288;2023-09-07T01:58:47;96927.19;;;11.83;62.90
50394;BME280;36308;46.312;25.288;2023-09-07T02:01:27;96925.59;;;11.82;62.81
50394;BME280;36308;46.312;25.288;2023-09-07T02:03:54;96902.72;;;11.67;63.42
50394;BME280;36308;46.312;25.288;2023-09-07T02:06:20;96916.84;;;11.75;63.44
50394;BME280;36308;46.312;25.288;2023-09-07T02:08:45;96896.75;;;11.65;62.99
50394;BME280;36308;46.312;25.288;2023-09-07T02:11:11;96889.63;;;11.59;63.61
50394;BME280;36308;46.312;25.288;2023-09-07T02:13:36;96895.03;;;11.59;63.54
50394;BME280;36308;46.312;25.288;2023-09-07T02:16:05;96913.97;;;11.64;63.36
50394;BME280;36308;46.312;25.288;2023-09-07T02:18:35;96904.19;;;11.58;63.29
50394;BME280;36308;46.312;25.288;2023-09-07T02:21:04;96911.88;;;11.66;63.51
50394;BME280;36308;46.312;25.288;2023-09-07T02:23:33;96909.28;;;11.60;63.46
50394;BME280;36308;46.312;25.288;2023-09-07T02:25:59;96907.44;;;11.60;63.86
50394;BME280;36308;46.312;25.288;2023-09-07T02:28:25;96905.78;;;11.59;63.23
50394;BME280;36308;46.312;25.288;2023-09-07T02:30:51;96892.72;;;11.51;63.58
50394;BME280;36308;46.312;25.288;2023-09-07T02:33:17;96905.22;;;11.57;63.26
50394;BME280;36308;46.312;25.288;2023-09-07T02:35:43;96912.25;;;11.58;63.74
50394;BME280;36308;46.312;25.288;2023-09-07T02:38:08;96911.69;;;11.56;63.55
50394;BME280;36308;46.312;25.288;2023-09-07T02:40:41;96907.84;;;11.52;64.09
50394;BME280;36308;46.312;25.288;2023-09-07T03:06:42;96909.97;;;11.21;63.19
50394;BME280;36308;46.312;25.288;2023-09-07T03:09:07;96912.06;;;11.19;63.45
50394;BME280;36308;46.312;25.288;2023-09-07T03:11:34;96927.25;;;11.25;63.32
50394;BME280;36308;46.312;25.288;2023-09-07T03:14:00;96926.69;;;11.23;63.28
50394;BME280;36308;46.312;25.288;2023-09-07T03:16:26;96915.50;;;11.15;63.95
50394;BME280;36308;46.312;25.288;2023-09-07T03:18:51;96927.06;;;11.15;63.65
50394;BME280;36308;46.312;25.288;2023-09-07T03:21:17;96922.13;;;11.12;63.83
50394;BME280;36308;46.312;25.288;2023-09-07T03:23:43;96918.28;;;11.08;64.43
50394;BME280;36308;46.312;25.288;2023-09-07T03:26:10;96920.66;;;11.04;63.84
50394;BME280;36308;46.312;25.288;2023-09-07T03:28:35;96928.47;;;11.06;63.61
50394;BME280;36308;46.312;25.288;2023-09-07T03:31:01;96923.25;;;10.99;63.72
50394;BME280;36308;46.312;25.288;2023-09-07T03:33:27;96926.28;;;11.03;64.17
50394;BME280;36308;46.312;25.288;2023-09-07T03:35:52;96932.59;;;11.08;64.43
50394;BME280;36308;46.312;25.288;2023-09-07T03:38:18;96933.06;;;11.05;64.49
50394;BME280;36308;46.312;25.288;2023-09-07T03:40:44;96922.44;;;10.99;64.51
50394;BME280;36308;46.312;25.288;2023-09-07T03:43:09;96932.00;;;11.06;64.07
50394;BME280;36308;46.312;25.288;2023-09-07T03:45:35;96943.00;;;11.05;64.51
50394;BME280;36308;46.312;25.288;2023-09-07T03:48:00;96939.38;;;10.99;64.33
50394;BME280;36308;46.312;25.288;2023-09-07T03:50:26;96947.22;;;11.01;64.59
50394;BME280;36308;46.312;25.288;2023-09-07T03:52:51;96954.72;;;10.99;64.83
50394;BME280;36308;46.312;25.288;2023-09-07T03:55:17;96947.09;;;10.96;64.06
50394;BME280;36308;46.312;25.288;2023-09-07T03:57:42;96929.72;;;10.86;64.14
50394;BME280;36308;46.312;25.288;2023-09-07T04:00:09;96958.00;;;11.01;63.74
50394;BME280;36308;46.312;25.288;2023-09-07T04:02:35;96933.94;;;10.82;63.77
50394;BME280;36308;46.312;25.288;2023-09-07T04:05:01;96936.03;;;10.80;64.32
50394;BME280;36308;46.312;25.288;2023-09-07T04:07:30;96945.84;;;10.86;64.50
50394;BME280;36308;46.312;25.288;2023-09-07T04:09:55;96950.78;;;10.89;64.25
50394;BME280;36308;46.312;25.288;2023-09-07T04:12:21;96948.19;;;10.83;64.33
50394;BME280;36308;46.312;25.288;2023-09-07T04:14:47;96948.91;;;10.78;64.11
50394;BME280;36308;46.312;25.288;2023-09-07T04:17:12;96948.91;;;10.78;64.50
50394;BME280;36308;46.312;25.288;2023-09-07T04:19:38;96944.47;;;10.72;64.23
50394;BME280;36308;46.312;25.288;2023-09-07T04:22:04;96952.09;;;10.75;64.63
50394;BME280;36308;46.312;25.288;2023-09-07T04:24:29;96976.75;;;10.84;64.22
50394;BME280;36308;46.312;25.288;2023-09-07T04:26:59;96947.16;;;10.72;65.28
50394;BME280;36308;46.312;25.288;2023-09-07T04:29:26;96939.56;;;10.69;64.36
50394;BME280;36308;46.312;25.288;2023-09-07T04:31:51;96940.84;;;10.66;65.10
50394;BME280;36308;46.312;25.288;2023-09-07T04:34:17;96947.16;;;10.72;64.96
50394;BME280;36308;46.312;25.288;2023-09-07T04:36:42;96935.94;;;10.63;64.92
50394;BME280;36308;46.312;25.288;2023-09-07T04:39:08;96963.88;;;10.74;64.92
50394;BME280;36308;46.312;25.288;2023-09-07T04:41:33;96965.03;;;10.78;65.08
50394;BME280;36308;46.312;25.288;2023-09-07T04:43:59;96955.56;;;10.76;65.68
50394;BME280;36308;46.312;25.288;2023-09-07T04:46:24;96960.72;;;10.77;65.80
50394;BME280;36308;46.312;25.288;2023-09-07T04:48:50;96947.38;;;10.70;65.73
50394;BME280;36308;46.312;25.288;2023-09-07T04:51:15;96957.56;;;10.80;65.92
50394;BME280;36308;46.312;25.288;2023-09-07T04:53:42;96948.91;;;10.78;65.91
50394;BME280;36308;46.312;25.288;2023-09-07T04:56:08;96969.03;;;10.87;66.37
50394;BME280;36308;46.312;25.288;2023-09-07T04:58:34;96972.38;;;10.95;66.16
50394;BME280;36308;46.312;25.288;2023-09-07T05:01:06;96942.22;;;10.81;66.23
50394;BME280;36308;46.312;25.288;2023-09-07T05:03:32;96976.91;;;11.06;66.17
50394;BME280;36308;46.312;25.288;2023-09-07T05:06:00;96986.16;;;11.10;66.60
50394;BME280;36308;46.312;25.288;2023-09-07T05:08:25;96957.88;;;10.96;66.63
50394;BME280;36308;46.312;25.288;2023-09-07T05:11:01;96957.50;;;11.04;66.56
50394;BME280;36308;46.312;25.288;2023-09-07T05:13:28;96970.59;;;11.12;66.71
50394;BME280;36308;46.312;25.288;2023-09-07T05:15:55;96979.94;;;11.21;66.51
50394;BME280;36308;46.312;25.288;2023-09-07T05:18:21;96964.25;;;11.18;66.90
50394;BME280;36308;46.312;25.288;2023-09-07T05:20:47;96958.06;;;11.18;66.72
50394;BME280;36308;46.312;25.288;2023-09-07T05:23:17;96989.16;;;11.37;66.64
50394;BME280;36308;46.312;25.288;2023-09-07T05:25:54;96978.63;;;11.36;67.06
50394;BME280;36308;46.312;25.288;2023-09-07T05:28:21;96986.41;;;11.49;66.42
50394;BME280;36308;46.312;25.288;2023-09-07T05:30:47;96971.78;;;11.45;66.47
50394;BME280;36308;46.312;25.288;2023-09-07T05:33:14;96992.56;;;11.61;66.50
50394;BME280;36308;46.312;25.288;2023-09-07T05:35:40;96967.66;;;11.54;66.71
50394;BME280;36308;46.312;25.288;2023-09-07T05:38:07;96992.53;;;11.73;65.87
50394;BME280;36308;46.312;25.288;2023-09-07T05:40:34;96977.66;;;11.70;66.33
50394;BME280;36308;46.312;25.288;2023-09-07T05:43:00;96982.66;;;11.79;65.74
50394;BME280;36308;46.312;25.288;2023-09-07T05:45:25;96989.28;;;11.88;66.21
50394;BME280;36308;46.312;25.288;2023-09-07T05:47:51;96994.78;;;11.93;65.67
50394;BME280;36308;46.312;25.288;2023-09-07T05:50:16;96984.00;;;11.93;65.42
50394;BME280;36308;46.312;25.288;2023-09-07T05:52:42;97000.78;;;12.12;65.66
50394;BME280;36308;46.312;25.288;2023-09-07T05:55:08;96984.50;;;12.07;65.53
50394;BME280;36308;46.312;25.288;2023-09-07T05:57:33;96995.00;;;12.20;65.41
50394;BME280;36308;46.312;25.288;2023-09-07T05:59:59;96992.13;;;12.27;65.23
50394;BME280;36308;46.312;25.288;2023-09-07T06:02:24;96992.78;;;12.34;65.34
50394;BME280;36308;46.312;25.288;2023-09-07T06:04:50;97006.66;;;12.43;65.22
50394;BME280;36308;46.312;25.288;2023-09-07T06:07:15;96987.63;;;12.49;64.59
50394;BME280;36308;46.312;25.288;2023-09-07T06:09:41;97004.03;;;12.65;64.01
50394;BME280;36308;46.312;25.288;2023-09-07T06:12:06;96996.00;;;12.70;63.59
50394;BME280;36308;46.312;25.288;2023-09-07T06:14:32;96991.75;;;12.74;63.60
50394;BME280;36308;46.312;25.288;2023-09-07T06:16:57;96967.97;;;12.71;63.33
50394;BME280;36308;46.312;25.288;2023-09-07T06:19:23;96970.31;;;12.84;63.20
50394;BME280;36308;46.312;25.288;2023-09-07T06:21:48;96992.19;;;13.05;63.18
50394;BME280;36308;46.312;25.288;2023-09-07T06:24:14;96987.88;;;13.04;62.59
50394;BME280;36308;46.312;25.288;2023-09-07T06:26:40;96995.09;;;13.20;62.43
50394;BME280;36308;46.312;25.288;2023-09-07T06:29:05;97001.78;;;13.34;62.76
50394;BME280;36308;46.312;25.288;2023-09-07T06:31:31;97013.84;;;13.49;62.30
50394;BME280;36308;46.312;25.288;2023-09-07T06:33:56;97010.16;;;13.55;62.67
50394;BME280;36308;46.312;25.288;2023-09-07T06:36:21;97014.91;;;13.70;62.45
50394;BME280;36308;46.312;25.288;2023-09-07T06:38:47;97000.06;;;13.72;62.09
50394;BME280;36308;46.312;25.288;2023-09-07T06:41:13;97011.03;;;13.88;61.73
50394;BME280;36308;46.312;25.288;2023-09-07T06:43:40;97003.28;;;13.97;61.81
50394;BME280;36308;46.312;25.288;2023-09-07T06:46:08;97008.50;;;14.03;61.98
50394;BME280;36308;46.312;25.288;2023-09-07T06:48:35;97016.78;;;14.24;61.91
50394;BME280;36308;46.312;25.288;2023-09-07T06:51:05;97016.91;;;14.39;61.63
50394;BME280;36308;46.312;25.288;2023-09-07T06:53:31;97011.06;;;14.52;61.88
50394;BME280;36308;46.312;25.288;2023-09-07T06:56:00;96997.28;;;14.54;61.41
50394;BME280;36308;46.312;25.288;2023-09-07T06:58:26;97013.44;;;14.76;61.14
50394;BME280;36308;46.312;25.288;2023-09-07T07:00:51;96991.00;;;14.81;60.91
50394;BME280;36308;46.312;25.288;2023-09-07T07:03:18;96976.16;;;14.88;60.80
50394;BME280;36308;46.312;25.288;2023-09-07T07:05:43;96992.53;;;15.09;60.45
50394;BME280;36308;46.312;25.288;2023-09-07T07:08:09;96999.66;;;15.30;60.10
50394;BME280;36308;46.312;25.288;2023-09-07T07:10:35;96996.47;;;15.44;59.95
50394;BME280;36308;46.312;25.288;2023-09-07T07:13:00;97000.84;;;15.60;59.98
50394;BME280;36308;46.312;25.288;2023-09-07T07:15:26;96980.00;;;15.66;59.88
50394;BME280;36308;46.312;25.288;2023-09-07T07:17:51;96986.31;;;15.82;59.60
50394;BME280;36308;46.312;25.288;2023-09-07T07:20:17;97002.63;;;16.07;59.37
50394;BME280;36308;46.312;25.288;2023-09-07T07:22:42;96980.97;;;16.12;58.54
50394;BME280;36308;46.312;25.288;2023-09-07T07:25:08;96972.25;;;16.21;58.02
50394;BME280;36308;46.312;25.288;2023-09-07T07:27:33;96980.41;;;16.51;58.00
50394;BME280;36308;46.312;25.288;2023-09-07T07:29:59;96982.56;;;16.70;57.88
50394;BME280;36308;46.312;25.288;2023-09-07T07:32:25;96984.72;;;16.88;57.66
50394;BME280;36308;46.312;25.288;2023-09-07T07:34:51;96967.03;;;17.01;57.35
50394;BME280;36308;46.312;25.288;2023-09-07T07:37:16;96980.25;;;17.28;57.15
50394;BME280;36308;46.312;25.288;2023-09-07T07:39:43;96985.94;;;17.47;56.29
50394;BME280;36308;46.312;25.288;2023-09-07T07:42:08;96983.38;;;17.66;56.11
50394;BME280;36308;46.312;25.288;2023-09-07T07:44:34;96981.66;;;17.86;55.74
50394;BME280;36308;46.312;25.288;2023-09-07T07:47:00;96978.28;;;18.04;55.09
50394;BME280;36308;46.312;25.288;2023-09-07T07:49:25;96983.59;;;18.25;54.56
50394;BME280;36308;46.312;25.288;2023-09-07T07:51:52;96983.44;;;18.45;53.81
50394;BME280;36308;46.312;25.288;2023-09-07T07:54:20;96974.56;;;18.64;52.76
50394;BME280;36308;46.312;25.288;2023-09-07T07:56:48;96977.41;;;18.83;52.64
50394;BME280;36308;46.312;25.288;2023-09-07T07:59:13;96978.53;;;19.06;52.58
50394;BME280;36308;46.312;25.288;2023-09-07T08:01:39;96969.28;;;19.26;52.45
50394;BME280;36308;46.312;25.288;2023-09-07T08:04:05;96970.94;;;19.51;52.37
50394;BME280;36308;46.312;25.288;2023-09-07T08:06:31;96956.56;;;19.64;51.65
50394;BME280;36308;46.312;25.288;2023-09-07T08:08:57;96976.06;;;19.95;51.49
50394;BME280;36308;46.312;25.288;2023-09-07T08:11:22;96972.75;;;20.17;50.16
50394;BME280;36308;46.312;25.288;2023-09-07T08:13:49;96974.66;;;20.36;49.62
50394;BME280;36308;46.312;25.288;2023-09-07T08:16:15;96959.13;;;20.50;49.38
50394;BME280;36308;46.312;25.288;2023-09-07T08:18:40;96956.38;;;20.69;48.89
50394;BME280;36308;46.312;25.288;2023-09-07T08:21:06;96967.56;;;21.01;48.57
50394;BME280;36308;46.312;25.288;2023-09-07T08:23:31;96960.97;;;21.15;47.45
50394;BME280;36308;46.312;25.288;2023-09-07T08:25:57;96965.13;;;21.40;46.17
50394;BME280;36308;46.312;25.288;2023-09-07T08:28:23;96942.69;;;21.44;46.18
50394;BME280;36308;46.312;25.288;2023-09-07T08:30:51;96965.41;;;21.80;46.21
50394;BME280;36308;46.312;25.288;2023-09-07T08:33:19;96950.69;;;21.90;45.88
50394;BME280;36308;46.312;25.288;2023-09-07T08:35:52;96961.03;;;22.16;44.76
50394;BME280;36308;46.312;25.288;2023-09-07T08:38:18;96954.44;;;22.31;44.61
50394;BME280;36308;46.312;25.288;2023-09-07T08:40:47;96946.84;;;22.50;43.96
50394;BME280;36308;46.312;25.288;2023-09-07T08:43:14;96963.09;;;22.78;43.06
50394;BME280;36308;46.312;25.288;2023-09-07T08:45:46;96942.53;;;22.89;42.98
50394;BME280;36308;46.312;25.288;2023-09-07T08:48:15;96949.13;;;23.11;42.83
50394;BME280;36308;46.312;25.288;2023-09-07T08:50:44;96946.28;;;23.33;42.58
50394;BME280;36308;46.312;25.288;2023-09-07T08:53:18;96941.81;;;23.55;42.42
50394;BME280;36308;46.312;25.288;2023-09-07T08:55:45;96940.75;;;23.82;42.54
50394;BME280;36308;46.312;25.288;2023-09-07T08:58:11;96951.59;;;24.13;42.16
50394;BME280;36308;46.312;25.288;2023-09-07T09:00:37;96955.97;;;24.40;42.09
50394;BME280;36308;46.312;25.288;2023-09-07T09:03:03;96949.00;;;24.60;41.54
50394;BME280;36308;46.312;25.288;2023-09-07T09:05:30;96952.50;;;24.87;41.02
50394;BME280;36308;46.312;25.288;2023-09-07T09:08:03;96937.25;;;24.98;40.20
50394;BME280;36308;46.312;25.288;2023-09-07T09:10:29;96952.06;;;25.32;40.38
50394;BME280;36308;46.312;25.288;2023-09-07T09:12:54;96935.75;;;25.48;39.86
50394;BME280;36308;46.312;25.288;2023-09-07T09:15:21;96936.94;;;25.68;39.13
50394;BME280;36308;46.312;25.288;2023-09-07T09:17:47;96945.41;;;25.93;38.74
50394;BME280;36308;46.312;25.288;2023-09-07T09:20:23;96947.03;;;26.15;37.86
50394;BME280;36308;46.312;25.288;2023-09-07T09:22:53;96948.38;;;26.30;36.75
50394;BME280;36308;46.312;25.288;2023-09-07T09:25:20;96937.59;;;26.37;36.90
50394;BME280;36308;46.312;25.288;2023-09-07T09:27:46;96949.34;;;26.67;35.62
50394;BME280;36308;46.312;25.288;2023-09-07T09:30:13;96944.19;;;26.78;34.90
50394;BME280;36308;46.312;25.288;2023-09-07T09:32:42;96939.16;;;26.92;35.04
50394;BME280;36308;46.312;25.288;2023-09-07T09:35:08;96911.81;;;26.99;35.25
50394;BME280;36308;46.312;25.288;2023-09-07T09:37:44;96933.34;;;27.31;35.44
50394;BME280;36308;46.312;25.288;2023-09-07T09:40:12;96925.19;;;27.47;34.60
50394;BME280;36308;46.312;25.288;2023-09-07T09:42:38;96916.19;;;27.62;33.77
50394;BME280;36308;46.312;25.288;2023-09-07T09:45:05;96926.56;;;27.90;33.44
50394;BME280;36308;46.312;25.288;2023-09-07T09:47:31;96920.63;;;28.04;33.80
50394;BME280;36308;46.312;25.288;2023-09-07T09:50:01;96921.41;;;28.16;33.75
50394;BME280;36308;46.312;25.288;2023-09-07T09:52:28;96912.81;;;28.34;33.44
50394;BME280;36308;46.312;25.288;2023-09-07T09:54:55;96915.06;;;28.56;33.50
50394;BME280;36308;46.312;25.288;2023-09-07T09:57:21;96923.91;;;28.78;33.22
50394;BME280;36308;46.312;25.288;2023-09-07T09:59:47;96929.56;;;28.97;33.08
50394;BME280;36308;46.312;25.288;2023-09-07T10:02:14;96906.91;;;29.08;32.49
50394;BME280;36308;46.312;25.288;2023-09-07T10:04:41;96912.25;;;29.32;32.14
50394;BME280;36308;46.312;25.288;2023-09-07T10:07:06;96919.75;;;29.48;32.07
50394;BME280;36308;46.312;25.288;2023-09-07T10:09:33;96894.81;;;29.48;31.98
50394;BME280;36308;46.312;25.288;2023-09-07T10:11:59;96914.16;;;29.79;31.82
50394;BME280;36308;46.312;25.288;2023-09-07T10:14:25;96918.13;;;29.98;31.34
50394;BME280;36308;46.312;25.288;2023-09-07T10:16:52;96915.66;;;30.12;31.13
50394;BME280;36308;46.312;25.288;2023-09-07T10:19:24;96910.97;;;30.32;30.57
50394;BME280;36308;46.312;25.288;2023-09-07T10:21:53;96912.84;;;30.48;29.24
50394;BME280;36308;46.312;25.288;2023-09-07T10:27:00;96916.09;;;30.73;29.82
50394;BME280;36308;46.312;25.288;2023-09-07T10:29:26;96907.78;;;30.92;29.97
50394;BME280;36308;46.312;25.288;2023-09-07T10:31:53;96909.59;;;31.08;29.72
50394;BME280;36308;46.312;25.288;2023-09-07T10:34:19;96899.47;;;31.19;29.59
50394;BME280;36308;46.312;25.288;2023-09-07T10:36:45;96886.84;;;31.21;29.25
50394;BME280;36308;46.312;25.288;2023-09-07T10:39:11;96896.63;;;31.38;28.47
50394;BME280;36308;46.312;25.288;2023-09-07T10:41:44;96894.41;;;31.48;28.17
50394;BME280;36308;46.312;25.288;2023-09-07T10:44:10;96894.13;;;31.56;28.57
50394;BME280;36308;46.312;25.288;2023-09-07T10:46:38;96891.56;;;31.71;28.29
50394;BME280;36308;46.312;25.288;2023-09-07T10:49:07;96890.16;;;31.84;27.98
50394;BME280;36308;46.312;25.288;2023-09-07T10:51:43;96871.91;;;31.87;27.75
50394;BME280;36308;46.312;25.288;2023-09-07T10:54:22;96882.84;;;31.99;27.31
50394;BME280;36308;46.312;25.288;2023-09-07T10:56:49;96883.09;;;31.90;26.56
50394;BME280;36308;46.312;25.288;2023-09-07T10:59:16;96891.38;;;31.87;26.79
50394;BME280;36308;46.312;25.288;2023-09-07T11:01:45;96873.44;;;31.80;27.39
50394;BME280;36308;46.312;25.288;2023-09-07T11:04:11;96864.34;;;31.84;27.17
50394;BME280;36308;46.312;25.288;2023-09-07T11:06:38;96880.47;;;32.01;27.59
50394;BME280;36308;46.312;25.288;2023-09-07T11:09:05;96865.91;;;32.11;27.54
50394;BME280;36308;46.312;25.288;2023-09-07T11:11:34;96870.81;;;32.21;27.36
50394;BME280;36308;46.312;25.288;2023-09-07T11:14:02;96866.56;;;32.31;26.80
50394;BME280;36308;46.312;25.288;2023-09-07T11:16:28;96866.16;;;32.33;26.53
50394;BME280;36308;46.312;25.288;2023-09-07T11:18:54;96867.84;;;32.41;27.16
50394;BME280;36308;46.312;25.288;2023-09-07T11:21:20;96866.72;;;32.49;26.10
50394;BME280;36308;46.312;25.288;2023-09-07T11:23:46;96861.50;;;32.44;25.99
50394;BME280;36308;46.312;25.288;2023-09-07T11:26:14;96852.81;;;32.49;25.66
50394;BME280;36308;46.312;25.288;2023-09-07T11:28:45;96852.50;;;32.54;25.44
50394;BME280;36308;46.312;25.288;2023-09-07T11:31:11;96860.91;;;32.61;25.21
50394;BME280;36308;46.312;25.288;2023-09-07T11:33:36;96852.16;;;32.59;25.53
50394;BME280;36308;46.312;25.288;2023-09-07T11:36:02;96858.66;;;32.74;25.57
50394;BME280;36308;46.312;25.288;2023-09-07T11:38:30;96862.72;;;32.84;25.40
50394;BME280;36308;46.312;25.288;2023-09-07T11:41:00;96862.03;;;32.94;26.02
50394;BME280;36308;46.312;25.288;2023-09-07T11:43:25;96862.13;;;33.05;25.79
50394;BME280;36308;46.312;25.288;2023-09-07T11:45:51;96840.56;;;32.98;25.90
50394;BME280;36308;46.312;25.288;2023-09-07T11:48:17;96857.13;;;33.25;25.85
50394;BME280;36308;46.312;25.288;2023-09-07T11:50:43;96859.59;;;33.34;25.39
50394;BME280;36308;46.312;25.288;2023-09-07T11:53:08;96838.88;;;33.31;24.63
50394;BME280;36308;46.312;25.288;2023-09-07T11:55:35;96855.28;;;33.44;24.72
50394;BME280;36308;46.312;25.288;2023-09-07T11:58:04;96848.16;;;33.53;25.07
50394;BME280;36308;46.312;25.288;2023-09-07T12:00:32;96845.06;;;33.62;25.19
50394;BME280;36308;46.312;25.288;2023-09-07T12:02:59;96842.72;;;33.71;25.34
50394;BME280;36308;46.312;25.288;2023-09-07T12:05:24;96842.75;;;33.78;25.34
50394;BME280;36308;46.312;25.288;2023-09-07T12:07:50;96848.41;;;33.89;25.42
50394;BME280;36308;46.312;25.288;2023-09-07T12:10:16;96841.25;;;33.99;25.45
50394;BME280;36308;46.312;25.288;2023-09-07T12:12:43;96837.28;;;34.07;25.51
50394;BME280;36308;46.312;25.288;2023-09-07T12:15:09;96834.13;;;34.09;25.07
50394;BME280;36308;46.312;25.288;2023-09-07T12:17:37;96828.53;;;34.05;24.37
50394;BME280;36308;46.312;25.288;2023-09-07T12:20:02;96832.50;;;34.04;24.57
50394;BME280;36308;46.312;25.288;2023-09-07T12:22:30;96830.09;;;33.99;24.83
50394;BME280;36308;46.312;25.288;2023-09-07T12:24:55;96832.88;;;33.99;24.58
50394;BME280;36308;46.312;25.288;2023-09-07T12:27:21;96832.47;;;33.97;24.35
50394;BME280;36308;46.312;25.288;2023-09-07T12:29:46;96832.47;;;33.97;24.55
50394;BME280;36308;46.312;25.288;2023-09-07T12:32:12;96834.09;;;33.98;24.19
50394;BME280;36308;46.312;25.288;2023-09-07T12:34:37;96834.09;;;33.98;23.97
50394;BME280;36308;46.312;25.288;2023-09-07T12:37:04;96827.69;;;33.94;24.11
50394;BME280;36308;46.312;25.288;2023-09-07T12:39:30;96802.94;;;33.81;23.48
50394;BME280;36308;46.312;25.288;2023-09-07T12:41:55;96836.41;;;33.89;23.39
50394;BME280;36308;46.312;25.288;2023-09-07T12:44:21;96816.81;;;33.67;22.94
50394;BME280;36308;46.312;25.288;2023-09-07T12:46:46;96828.34;;;33.62;23.19
50394;BME280;36308;46.312;25.288;2023-09-07T12:49:12;96827.50;;;33.58;23.79
50394;BME280;36308;46.312;25.288;2023-09-07T12:51:40;96827.47;;;33.54;23.72
50394;BME280;36308;46.312;25.288;2023-09-07T12:54:05;96797.06;;;33.31;23.50
50394;BME280;36308;46.312;25.288;2023-09-07T12:56:31;96816.59;;;33.38;23.79
50394;BME280;36308;46.312;25.288;2023-09-07T12:58:56;96817.75;;;33.30;24.03
50394;BME280;36308;46.312;25.288;2023-09-07T13:01:25;96805.69;;;33.12;23.66
50394;BME280;36308;46.312;25.288;2023-09-07T13:03:50;96815.66;;;33.13;23.84
50394;BME280;36308;46.312;25.288;2023-09-07T13:06:16;96819.94;;;33.07;24.27
50394;BME280;36308;46.312;25.288;2023-09-07T13:08:43;96819.53;;;33.05;24.17
50394;BME280;36308;46.312;25.288;2023-09-07T13:11:09;96813.56;;;33.02;24.61
50394;BME280;36308;46.312;25.288;2023-09-07T13:13:34;96791.19;;;32.92;24.35